sensor_id;sensor_type;location;lat;lon;timestamp;temperature;humidity
72576;DHT22;60613;48.658;2.328;2023-03-31T06:02:40;20.90;42.30
72576;DHT22;60613;48.658;2.328;2023-03-31T06:05:07;20.80;43.30
72576;DHT22;60613;48.658;2.328;2023-03-31T06:07:32;20.90;43.20
72576;DHT22;60613;48.658;2.328;2023-03-31T06:09:58;20.90;43.20
72576;DHT22;60613;48.658;2.328;2023-03-31T06:12:24;20.90;43.30
72576;DHT22;60613;48.658;2.328;2023-03-31T06:14:49;20.90;43.20
72576;DHT22;60613;48.658;2.328;2023-03-31T06:17:15;21.00;43.10
72576;DHT22;60613;48.658;2.328;2023-03-31T06:19:40;20.90;42.90
72576;DHT22;60613;48.658;2.328;2023-03-31T06:22:06;21.00;42.80
72576;DHT22;60613;48.658;2.328;2023-03-31T06:24:32;21.00;42.70
72576;DHT22;60613;48.658;2.328;2023-03-31T06:26:57;21.00;42.70
72576;DHT22;60613;48.658;2.328;2023-03-31T06:29:25;21.10;42.70
72576;DHT22;60613;48.658;2.328;2023-03-31T06:31:51;21.10;42.70
72576;DHT22;60613;48.658;2.328;2023-03-31T06:34:17;21.10;42.70
72576;DHT22;60613;48.658;2.328;2023-03-31T06:36:43;21.10;42.70
72576;DHT22;60613;48.658;2.328;2023-03-31T06:39:08;21.10;42.60
72576;DHT22;60613;48.658;2.328;2023-03-31T06:41:34;21.10;42.60
72576;DHT22;60613;48.658;2.328;2023-03-31T06:43:59;21.10;42.50
72576;DHT22;60613;48.658;2.328;2023-03-31T06:46:25;21.10;42.50
72576;DHT22;60613;48.658;2.328;2023-03-31T06:48:50;21.10;42.60
72576;DHT22;60613;48.658;2.328;2023-03-31T06:51:16;21.10;42.60
72576;DHT22;60613;48.658;2.328;2023-03-31T06:53:42;21.10;42.50
72576;DHT22;60613;48.658;2.328;2023-03-31T06:56:07;21.10;42.50
72576;DHT22;60613;48.658;2.328;2023-03-31T06:58:33;21.10;42.60
72576;DHT22;60613;48.658;2.328;2023-03-31T07:01:01;21.10;42.50
72576;DHT22;60613;48.658;2.328;2023-03-31T07:03:27;21.10;42.50
72576;DHT22;60613;48.658;2.328;2023-03-31T07:05:54;21.10;42.40
72576;DHT22;60613;48.658;2.328;2023-03-31T07:08:21;21.10;42.40
72576;DHT22;60613;48.658;2.328;2023-03-31T07:10:48;21.10;42.50
72576;DHT22;60613;48.658;2.328;2023-03-31T07:13:15;21.10;42.40
72576;DHT22;60613;48.658;2.328;2023-03-31T07:15:41;21.10;42.40
72576;DHT22;60613;48.658;2.328;2023-03-31T07:18:07;21.10;42.30
72576;DHT22;60613;48.658;2.328;2023-03-31T07:20:33;21.10;42.40
72576;DHT22;60613;48.658;2.328;2023-03-31T07:22:59;21.10;42.30
72576;DHT22;60613;48.658;2.328;2023-03-31T07:25:27;21.10;42.30
72576;DHT22;60613;48.658;2.328;2023-03-31T07:27:52;21.20;42.20
72576;DHT22;60613;48.658;2.328;2023-03-31T07:30:19;21.20;42.30
72576;DHT22;60613;48.658;2.328;2023-03-31T07:32:46;21.20;42.10
72576;DHT22;60613;48.658;2.328;2023-03-31T07:35:12;21.20;42.10
72576;DHT22;60613;48.658;2.328;2023-03-31T07:37:40;21.20;41.70
72576;DHT22;60613;48.658;2.328;2023-03-31T07:40:08;21.20;41.10
72576;DHT22;60613;48.658;2.328;2023-03-31T07:42:34;21.10;41.00
72576;DHT22;60613;48.658;2.328;2023-03-31T07:45:00;21.10;41.10
72576;DHT22;60613;48.658;2.328;2023-03-31T07:47:27;21.00;41.50
72576;DHT22;60613;48.658;2.328;2023-03-31T07:49:53;21.00;41.60
72576;DHT22;60613;48.658;2.328;2023-03-31T07:52:19;20.90;41.50
72576;DHT22;60613;48.658;2.328;2023-03-31T07:54:45;20.90;41.70
72576;DHT22;60613;48.658;2.328;2023-03-31T07:57:11;20.90;42.00
72576;DHT22;60613;48.658;2.328;2023-03-31T07:59:37;21.00;42.30
72576;DHT22;60613;48.658;2.328;2023-03-31T08:02:02;21.10;42.30
72576;DHT22;60613;48.658;2.328;2023-03-31T08:04:28;21.10;42.10
72576;DHT22;60613;48.658;2.328;2023-03-31T08:06:54;21.20;42.20
72576;DHT22;60613;48.658;2.328;2023-03-31T08:09:19;21.30;41.90
72576;DHT22;60613;48.658;2.328;2023-03-31T08:11:47;21.30;41.70
72576;DHT22;60613;48.658;2.328;2023-03-31T08:14:13;21.40;41.90
72576;DHT22;60613;48.658;2.328;2023-03-31T08:16:38;21.40;42.60
72576;DHT22;60613;48.658;2.328;2023-03-31T08:19:04;21.40;44.00
72576;DHT22;60613;48.658;2.328;2023-03-31T08:21:30;21.50;43.60
72576;DHT22;60613;48.658;2.328;2023-03-31T08:23:56;21.50;44.70
72576;DHT22;60613;48.658;2.328;2023-03-31T08:26:22;21.60;43.90
72576;DHT22;60613;48.658;2.328;2023-03-31T08:28:51;21.60;43.60
72576;DHT22;60613;48.658;2.328;2023-03-31T08:31:19;21.60;43.80
72576;DHT22;60613;48.658;2.328;2023-03-31T08:33:45;21.60;44.00
72576;DHT22;60613;48.658;2.328;2023-03-31T08:36:12;21.70;44.60
72576;DHT22;60613;48.658;2.328;2023-03-31T08:38:40;21.70;43.30
72576;DHT22;60613;48.658;2.328;2023-03-31T08:46:54;21.90;41.50
72576;DHT22;60613;48.658;2.328;2023-03-31T08:49:21;22.00;41.30
72576;DHT22;60613;48.658;2.328;2023-03-31T08:52:10;22.00;41.70
72576;DHT22;60613;48.658;2.328;2023-03-31T08:54:43;22.00;42.40
72576;DHT22;60613;48.658;2.328;2023-03-31T08:57:19;22.00;42.80
72576;DHT22;60613;48.658;2.328;2023-03-31T08:59:45;22.10;42.50
72576;DHT22;60613;48.658;2.328;2023-03-31T09:07:34;22.10;42.90
72576;DHT22;60613;48.658;2.328;2023-03-31T09:10:02;22.20;42.60
72576;DHT22;60613;48.658;2.328;2023-03-31T09:12:55;22.20;42.80
72576;DHT22;60613;48.658;2.328;2023-03-31T09:20:51;22.30;43.10
72576;DHT22;60613;48.658;2.328;2023-03-31T09:23:31;22.20;43.00
72576;DHT22;60613;48.658;2.328;2023-03-31T09:25:58;22.20;42.40
72576;DHT22;60613;48.658;2.328;2023-03-31T09:28:38;22.20;42.60
72576;DHT22;60613;48.658;2.328;2023-03-31T09:31:12;22.20;43.00
72576;DHT22;60613;48.658;2.328;2023-03-31T09:33:45;22.20;44.30
72576;DHT22;60613;48.658;2.328;2023-03-31T09:36:16;22.20;43.30
72576;DHT22;60613;48.658;2.328;2023-03-31T09:38:43;22.20;42.80
72576;DHT22;60613;48.658;2.328;2023-03-31T09:41:10;22.10;42.80
72576;DHT22;60613;48.658;2.328;2023-03-31T09:43:37;22.10;43.10
72576;DHT22;60613;48.658;2.328;2023-03-31T09:46:16;22.10;43.50
72576;DHT22;60613;48.658;2.328;2023-03-31T09:49:15;22.10;43.00
72576;DHT22;60613;48.658;2.328;2023-03-31T09:51:46;22.10;43.20
72576;DHT22;60613;48.658;2.328;2023-03-31T09:54:20;22.10;43.70
72576;DHT22;60613;48.658;2.328;2023-03-31T09:56:49;22.10;43.80
72576;DHT22;60613;48.658;2.328;2023-03-31T09:59:19;22.20;43.90
72576;DHT22;60613;48.658;2.328;2023-03-31T10:01:48;22.10;43.30
72576;DHT22;60613;48.658;2.328;2023-03-31T10:04:23;22.10;43.50
72576;DHT22;60613;48.658;2.328;2023-03-31T10:06:50;22.10;43.10
72576;DHT22;60613;48.658;2.328;2023-03-31T10:09:20;22.10;43.10
72576;DHT22;60613;48.658;2.328;2023-03-31T10:12:14;22.10;43.10
72576;DHT22;60613;48.658;2.328;2023-03-31T10:14:47;22.10;43.00
72576;DHT22;60613;48.658;2.328;2023-03-31T10:17:15;22.10;43.20
72576;DHT22;60613;48.658;2.328;2023-03-31T10:19:50;22.10;42.90
72576;DHT22;60613;48.658;2.328;2023-03-31T10:24:50;22.10;42.70
72576;DHT22;60613;48.658;2.328;2023-03-31T10:27:23;22.10;42.50
72576;DHT22;60613;48.658;2.328;2023-03-31T10:29:53;22.10;42.20
72576;DHT22;60613;48.658;2.328;2023-03-31T10:34:55;22.10;43.10
72576;DHT22;60613;48.658;2.328;2023-03-31T10:37:27;22.10;42.90
72576;DHT22;60613;48.658;2.328;2023-03-31T10:40:02;22.10;43.10
72576;DHT22;60613;48.658;2.328;2023-03-31T10:42:30;22.10;43.20
72576;DHT22;60613;48.658;2.328;2023-03-31T10:47:40;22.10;42.90
72576;DHT22;60613;48.658;2.328;2023-03-31T10:50:13;22.10;44.40
72576;DHT22;60613;48.658;2.328;2023-03-31T10:52:47;22.10;42.90
72576;DHT22;60613;48.658;2.328;2023-03-31T10:55:22;22.10;42.90
72576;DHT22;60613;48.658;2.328;2023-03-31T11:00:29;22.20;42.90
72576;DHT22;60613;48.658;2.328;2023-03-31T11:05:59;22.20;42.50
72576;DHT22;60613;48.658;2.328;2023-03-31T11:16:43;22.20;41.90
72576;DHT22;60613;48.658;2.328;2023-03-31T11:19:38;22.20;41.90
72576;DHT22;60613;48.658;2.328;2023-03-31T11:27:52;22.30;41.80
72576;DHT22;60613;48.658;2.328;2023-03-31T11:39:37;22.30;41.80
72576;DHT22;60613;48.658;2.328;2023-03-31T11:42:12;22.30;41.40
72576;DHT22;60613;48.658;2.328;2023-03-31T11:44:43;22.30;41.40
72576;DHT22;60613;48.658;2.328;2023-03-31T11:47:23;22.30;41.90
72576;DHT22;60613;48.658;2.328;2023-03-31T11:49:58;22.30;41.60
72576;DHT22;60613;48.658;2.328;2023-03-31T11:52:31;22.30;41.50
72576;DHT22;60613;48.658;2.328;2023-03-31T12:00:27;22.40;42.40
72576;DHT22;60613;48.658;2.328;2023-03-31T12:02:54;22.40;42.50
72576;DHT22;60613;48.658;2.328;2023-03-31T12:05:23;22.40;41.90
72576;DHT22;60613;48.658;2.328;2023-03-31T12:08:16;22.50;42.30
72576;DHT22;60613;48.658;2.328;2023-03-31T12:10:51;22.40;42.10
72576;DHT22;60613;48.658;2.328;2023-03-31T12:13:35;22.40;43.30
72576;DHT22;60613;48.658;2.328;2023-03-31T12:18:59;22.40;43.20
72576;DHT22;60613;48.658;2.328;2023-03-31T12:21:28;22.50;43.10
72576;DHT22;60613;48.658;2.328;2023-03-31T12:23:55;22.50;42.50
72576;DHT22;60613;48.658;2.328;2023-03-31T12:26:39;22.60;42.30
72576;DHT22;60613;48.658;2.328;2023-03-31T12:30:16;22.60;42.20
72576;DHT22;60613;48.658;2.328;2023-03-31T12:32:19;22.60;42.00
72576;DHT22;60613;48.658;2.328;2023-03-31T12:40:21;22.60;41.50
72576;DHT22;60613;48.658;2.328;2023-03-31T12:56:17;22.60;41.40
72576;DHT22;60613;48.658;2.328;2023-03-31T12:58:44;22.60;41.50
72576;DHT22;60613;48.658;2.328;2023-03-31T13:01:15;22.60;41.30
72576;DHT22;60613;48.658;2.328;2023-03-31T13:03:45;22.60;41.10
72576;DHT22;60613;48.658;2.328;2023-03-31T13:08:57;22.60;41.20
72576;DHT22;60613;48.658;2.328;2023-03-31T13:16:41;22.70;40.70
72576;DHT22;60613;48.658;2.328;2023-03-31T13:19:11;22.70;40.70
72576;DHT22;60613;48.658;2.328;2023-03-31T13:21:56;22.70;40.60
72576;DHT22;60613;48.658;2.328;2023-03-31T13:24:24;22.70;40.70
72576;DHT22;60613;48.658;2.328;2023-03-31T13:26:52;22.70;40.70
72576;DHT22;60613;48.658;2.328;2023-03-31T13:29:24;22.70;40.70
72576;DHT22;60613;48.658;2.328;2023-03-31T13:34:40;22.70;40.50
72576;DHT22;60613;48.658;2.328;2023-03-31T13:56:07;22.70;40.30
72576;DHT22;60613;48.658;2.328;2023-03-31T14:07:39;22.70;40.40
72576;DHT22;60613;48.658;2.328;2023-03-31T14:10:28;22.70;40.50
72576;DHT22;60613;48.658;2.328;2023-03-31T14:13:24;22.70;40.60
72576;DHT22;60613;48.658;2.328;2023-03-31T14:15:55;22.70;40.50
72576;DHT22;60613;48.658;2.328;2023-03-31T14:29:23;22.80;40.80
72576;DHT22;60613;48.658;2.328;2023-03-31T14:34:56;22.80;41.10
72576;DHT22;60613;48.658;2.328;2023-03-31T14:37:25;22.80;41.10
72576;DHT22;60613;48.658;2.328;2023-03-31T14:39:54;22.80;41.30
72576;DHT22;60613;48.658;2.328;2023-03-31T14:42:36;22.80;41.30
72576;DHT22;60613;48.658;2.328;2023-03-31T14:45:05;22.80;41.20
72576;DHT22;60613;48.658;2.328;2023-03-31T14:47:34;22.80;40.80
72576;DHT22;60613;48.658;2.328;2023-03-31T14:52:29;22.80;40.80
72576;DHT22;60613;48.658;2.328;2023-03-31T14:54:55;22.80;40.80
72576;DHT22;60613;48.658;2.328;2023-03-31T14:57:27;22.80;40.80
72576;DHT22;60613;48.658;2.328;2023-03-31T14:59:54;22.70;40.60
72576;DHT22;60613;48.658;2.328;2023-03-31T15:02:30;22.70;40.60
72576;DHT22;60613;48.658;2.328;2023-03-31T15:04:57;22.70;40.50
72576;DHT22;60613;48.658;2.328;2023-03-31T15:07:23;22.70;40.50
72576;DHT22;60613;48.658;2.328;2023-03-31T15:09:49;22.70;40.40
72576;DHT22;60613;48.658;2.328;2023-03-31T15:12:18;22.70;40.40
72576;DHT22;60613;48.658;2.328;2023-03-31T15:14:53;22.70;40.30
72576;DHT22;60613;48.658;2.328;2023-03-31T15:17:27;22.70;40.20
72576;DHT22;60613;48.658;2.328;2023-03-31T15:19:58;22.70;40.40
72576;DHT22;60613;48.658;2.328;2023-03-31T15:22:26;22.70;40.30
72576;DHT22;60613;48.658;2.328;2023-03-31T15:24:53;22.70;40.40
72576;DHT22;60613;48.658;2.328;2023-03-31T15:27:36;22.70;40.30
72576;DHT22;60613;48.658;2.328;2023-03-31T15:30:11;22.70;40.40
72576;DHT22;60613;48.658;2.328;2023-03-31T15:32:39;22.70;40.90
72576;DHT22;60613;48.658;2.328;2023-03-31T15:35:05;22.70;40.80
72576;DHT22;60613;48.658;2.328;2023-03-31T15:37:41;22.70;41.10
72576;DHT22;60613;48.658;2.328;2023-03-31T15:40:37;22.60;40.90
72576;DHT22;60613;48.658;2.328;2023-03-31T15:43:16;22.70;41.00
72576;DHT22;60613;48.658;2.328;2023-03-31T15:48:18;22.70;41.10
72576;DHT22;60613;48.658;2.328;2023-03-31T15:50:44;22.70;41.10
72576;DHT22;60613;48.658;2.328;2023-03-31T15:53:29;22.60;41.10
72576;DHT22;60613;48.658;2.328;2023-03-31T15:55:57;22.70;40.90
72576;DHT22;60613;48.658;2.328;2023-03-31T16:01:12;22.80;40.40
72576;DHT22;60613;48.658;2.328;2023-03-31T16:03:40;22.80;40.20
72576;DHT22;60613;48.658;2.328;2023-03-31T16:06:34;22.80;40.20
72576;DHT22;60613;48.658;2.328;2023-03-31T16:09:05;22.80;40.20
72576;DHT22;60613;48.658;2.328;2023-03-31T16:11:48;22.90;40.20
72576;DHT22;60613;48.658;2.328;2023-03-31T16:14:24;22.90;40.00
72576;DHT22;60613;48.658;2.328;2023-03-31T16:17:03;22.90;39.90
72576;DHT22;60613;48.658;2.328;2023-03-31T16:19:39;22.90;39.80
72576;DHT22;60613;48.658;2.328;2023-03-31T16:22:05;22.90;39.80
72576;DHT22;60613;48.658;2.328;2023-03-31T16:24:33;22.90;39.60
72576;DHT22;60613;48.658;2.328;2023-03-31T16:27:01;22.80;39.90
72576;DHT22;60613;48.658;2.328;2023-03-31T16:29:32;22.80;39.70
72576;DHT22;60613;48.658;2.328;2023-03-31T16:32:15;22.90;39.70
72576;DHT22;60613;48.658;2.328;2023-03-31T16:34:59;22.90;39.60
72576;DHT22;60613;48.658;2.328;2023-03-31T16:37:26;22.80;39.30
72576;DHT22;60613;48.658;2.328;2023-03-31T16:39:52;22.90;39.40
72576;DHT22;60613;48.658;2.328;2023-03-31T16:42:19;22.90;39.40
72576;DHT22;60613;48.658;2.328;2023-03-31T16:44:45;22.90;39.30
72576;DHT22;60613;48.658;2.328;2023-03-31T16:47:14;22.80;39.30
72576;DHT22;60613;48.658;2.328;2023-03-31T16:49:40;22.80;39.30
72576;DHT22;60613;48.658;2.328;2023-03-31T16:52:06;22.80;39.30
72576;DHT22;60613;48.658;2.328;2023-03-31T16:54:33;22.80;39.40
72576;DHT22;60613;48.658;2.328;2023-03-31T16:57:00;22.80;39.30
72576;DHT22;60613;48.658;2.328;2023-03-31T16:59:25;22.80;39.20
72576;DHT22;60613;48.658;2.328;2023-03-31T17:01:51;22.80;39.20
72576;DHT22;60613;48.658;2.328;2023-03-31T17:04:17;22.70;39.20
72576;DHT22;60613;48.658;2.328;2023-03-31T17:06:44;22.80;39.30
72576;DHT22;60613;48.658;2.328;2023-03-31T17:09:10;22.80;39.40
72576;DHT22;60613;48.658;2.328;2023-03-31T17:11:35;22.70;39.30
72576;DHT22;60613;48.658;2.328;2023-03-31T17:14:01;22.70;39.20
72576;DHT22;60613;48.658;2.328;2023-03-31T17:16:28;22.70;39.20
72576;DHT22;60613;48.658;2.328;2023-03-31T17:18:54;22.70;39.20
72576;DHT22;60613;48.658;2.328;2023-03-31T17:21:19;22.70;39.20
72576;DHT22;60613;48.658;2.328;2023-03-31T17:23:46;22.70;39.30
72576;DHT22;60613;48.658;2.328;2023-03-31T17:26:12;22.70;39.20
72576;DHT22;60613;48.658;2.328;2023-03-31T17:28:38;22.60;39.20
72576;DHT22;60613;48.658;2.328;2023-03-31T17:31:24;22.60;39.30
72576;DHT22;60613;48.658;2.328;2023-03-31T17:33:50;22.60;39.20
72576;DHT22;60613;48.658;2.328;2023-03-31T17:36:16;22.60;39.30
72576;DHT22;60613;48.658;2.328;2023-03-31T17:38:42;22.60;39.20
72576;DHT22;60613;48.658;2.328;2023-03-31T17:41:10;22.60;39.30
72576;DHT22;60613;48.658;2.328;2023-03-31T17:43:37;22.60;39.30
72576;DHT22;60613;48.658;2.328;2023-03-31T17:46:05;22.60;39.30
72576;DHT22;60613;48.658;2.328;2023-03-31T17:48:32;22.50;39.30
72576;DHT22;60613;48.658;2.328;2023-03-31T17:51:06;22.50;39.40
72576;DHT22;60613;48.658;2.328;2023-03-31T17:53:33;22.50;39.40
72576;DHT22;60613;48.658;2.328;2023-03-31T17:56:00;22.50;39.40
72576;DHT22;60613;48.658;2.328;2023-03-31T17:58:26;22.50;39.50
72576;DHT22;60613;48.658;2.328;2023-03-31T18:00:52;22.50;39.50
72576;DHT22;60613;48.658;2.328;2023-03-31T18:03:18;22.50;39.50
72576;DHT22;60613;48.658;2.328;2023-03-31T18:05:44;22.50;39.70
72576;DHT22;60613;48.658;2.328;2023-03-31T18:08:10;22.50;39.50
72576;DHT22;60613;48.658;2.328;2023-03-31T18:10:36;22.50;39.60
72576;DHT22;60613;48.658;2.328;2023-03-31T18:13:02;22.50;39.50
72576;DHT22;60613;48.658;2.328;2023-03-31T18:15:28;22.50;39.70
72576;DHT22;60613;48.658;2.328;2023-03-31T18:17:54;22.40;39.60
72576;DHT22;60613;48.658;2.328;2023-03-31T18:20:20;22.40;39.50
72576;DHT22;60613;48.658;2.328;2023-03-31T18:22:47;22.40;40.70
72576;DHT22;60613;48.658;2.328;2023-03-31T18:25:14;22.40;39.60
72576;DHT22;60613;48.658;2.328;2023-03-31T18:27:40;22.40;39.50
72576;DHT22;60613;48.658;2.328;2023-03-31T18:30:07;22.40;39.60
72576;DHT22;60613;48.658;2.328;2023-03-31T18:32:33;22.40;39.40
72576;DHT22;60613;48.658;2.328;2023-03-31T18:34:59;22.40;39.50
72576;DHT22;60613;48.658;2.328;2023-03-31T18:37:25;22.40;39.60
72576;DHT22;60613;48.658;2.328;2023-03-31T18:39:51;22.40;39.50
72576;DHT22;60613;48.658;2.328;2023-03-31T18:42:17;22.40;39.40
72576;DHT22;60613;48.658;2.328;2023-03-31T18:44:50;22.40;39.50
72576;DHT22;60613;48.658;2.328;2023-03-31T18:47:15;22.40;39.40
72576;DHT22;60613;48.658;2.328;2023-03-31T18:49:41;22.40;39.60
72576;DHT22;60613;48.658;2.328;2023-03-31T18:52:07;22.40;39.50
72576;DHT22;60613;48.658;2.328;2023-03-31T18:54:32;22.40;39.40
72576;DHT22;60613;48.658;2.328;2023-03-31T18:56:58;22.40;39.50
72576;DHT22;60613;48.658;2.328;2023-03-31T18:59:25;22.40;39.40
